Oakwood, IL (61858)

2:30 AM CDT on August 25, 2016 (GMT -0500)
K9ADL | | Change Station

Elev 725 ft 40.17 °N, 87.77 °W | Updated 3 seconds ago

Mostly Cloudy
Mostly Cloudy
73.8 °F
Feels Like 70 °F
N
2.3
Wind Variable Wind from SW
Gusts 2.3 mph

Today
High -- | Low -- °F
--% Chance of Precip.
Yesterday
High -- | Low -- °F
Precip. -- in
Pressure 29.99 in
Visibility 7.0 miles
Clouds Scattered Clouds 4000 ft
Scattered Clouds 5000 ft
Mostly Cloudy 6000 ft
Heat Index 70 °F
Dew Point 73 °F
Humidity 96%
Rainfall 0.00 in
Snow Depth Not available.
6:12 AM 7:32 PM
Waning Gibbous, 48% visible
METAR KDNV 250715Z AUTO 21004KT 7SM SCT040 SCT050 BKN060 24/23 A2999 RMK AO2 T02350230
Pressure 29.99 in
Visibility 7.0 miles
Clouds Scattered Clouds 4000 ft
Scattered Clouds 5000 ft
Mostly Cloudy 6000 ft
Heat Index 70 °F
Dew Point 73 °F
Humidity 96%
Rainfall 0.00 in
Snow Depth Not available.
6:12 AM 7:32 PM
Waning Gibbous, 48% visible
METAR KDNV 250715Z AUTO 21004KT 7SM SCT040 SCT050 BKN060 24/23 A2999 RMK AO2 T02350230

10-Day Weather Forecast

Almanac

Astronomy

Aug. 25, 2016 Rise Set
Actual Time
Civil Twilight
Nautical Twilight
Astronomical Twilight
Moon
Length of Visible Light
Length of Day
Tomorrow will be .
, % of the Moon is Illuminated

Today's Extremes

State Highs State Lows

Community

WunderPhotos

Upload Photos

1,934,814 photos uploaded!

WunderBlog® & News

Nearby

Air Quality

  Air Quality AQ Index Pollutant
Not available.

Snow Depth

Station Depth Elevation

Earthquake Activity

City Distance Mag. Time & Date
Minimum magnitude displayed is 2.5.

Coastal Water Temperatures

Place Temperature

Stations

Nearby Weather Stations

Station Location Temp. Windchill Dew Point Humidity Wind Precip. Elev Updated Type
                   

Watches & Warnings

There are currently no watches in effect.